KBTR/BTR METAR and TAF weather

Enter ICAO airport designator
Station Type Date Time Source
KBTR METAR 2019/04/18 19:53 UTC NOAA

KBTR 181953Z 36020G29KT 1/2SM +TSRA FG BKN007 OVC018 19/18 A2964 RMK AO2 PK WND 36029/1950 WSHFT 1921 LTG DSNT ALQDS TSB1854E09B12 PRESFR SLP037 P0064 T01890178 RVRNO


Station Type Date Time Source
KBTR Decoded METAR 2019/04/18 19:53 UTC NOAA

BATON ROUGE METRO RYAN FIELD, LA, United States (KBTR) 30-32N 91-09W 21M
Apr 18, 2019 - 03:53 PM EDT / 2019.04.18 1953 UTC
Wind: from the N (360 degrees) at 23 MPH (20 KT) gusting to 33 MPH (29 KT):0
Visibility: 1/2 mile(s):0
Sky conditions: overcast
Weather: heavy rain with thunder; fog; Lightning observed
Precipitation last hour: 0.64 inches
Temperature: 66.0 F (18.9 C)
Dew Point: 64.0 F (17.8 C)
Relative Humidity: 93%
Pressure (altimeter): 29.64 in. Hg (1003 hPa)
Pressure tendency: falling rapidly
ob: KBTR 181953Z 36020G29KT 1/2SM +TSRA FG BKN007 OVC018 19/18 A2964 RMK AO2 PK WND 36029/1950 WSHFT 1921 LTG DSNT ALQDS TSB1854E09B12 PRESFR SLP037 P0064 T01890178 RVRNO
cycle: 20

Station Type Date Time Source
KBTR TAF 2019/04/18 20:21 UTC NOAA

TAF
AMD KBTR 182017Z 1820/1918 36020G29KT 1/2SM +TSRA FG BKN007 OVC018CB WS020/20055KT
FM190000 21012KT P6SM SCT008 BKN030
FM190900 30009KT P6SM FEW008 SCT050

Example: see airport list